Terminal Aerodrome Forecast
Issued by NWS

Home | Current Version | Previous Version | Graphics & Text | Print | Product List | Glossary On
Versions: 1 2 3 4 5 6 7 8 9 10 11 12 13 14 15 16
000
FTUS43 KFGF 272000 AAA
TAFBJI
TAF AMD
KBJI 272001Z 2720/2818 16008KT P6SM FEW012 BKN110
     FM272200 15009KT P6SM BKN014
      TEMPO 2722/2724 SCT014
     FM280500 14007KT 6SM BR OVC010=

USA.gov is the U.S. government's official web portal to all federal, state and local government web resources and services.